Time;durP1;ratioP1;P1;durP2;ratioP2;P2;SDS_P1;SDS_P2;PMS_P1;PMS_P2;Temp;Humidity;BMP_temperature;BMP_pressure;BME280_temperature;BME280_humidity;BME280_pressure;Samples;Min_cycle;Max_cycle;Signal;HPM_P1;HPM_P2
2023/04/17 00:01:16;;;;;;;1.88;1.77;;;;;;;;;;5051979;28;20099;-68
2023/04/17 00:03:41;;;;;;;3.15;1.70;;;;;;;;;;5051077;28;20425;-67
2023/04/17 00:06:06;;;;;;;2.30;2.00;;;;;;;;;;5051006;28;20051;-70
2023/04/17 00:08:33;;;;;;;3.03;1.80;;;;;;;;;;5050707;28;20072;-67
2023/04/17 00:10:58;;;;;;;1.40;1.30;;;;;;;;;;5052150;28;20056;-67
2023/04/17 00:13:23;;;;;;;1.67;1.55;;;;;;;;;;5051110;28;20103;-67
2023/04/17 00:15:49;;;;;;;1.95;1.60;;;;;;;;;;5051304;28;20086;-68
2023/04/17 00:18:14;;;;;;;1.80;1.63;;;;;;;;;;5050929;28;20837;-69
2023/04/17 00:20:40;;;;;;;1.88;1.67;;;;;;;;;;5051958;28;20045;-68
2023/04/17 00:23:06;;;;;;;1.70;1.60;;;;;;;;;;5051545;28;20512;-67
2023/04/17 00:25:31;;;;;;;1.73;1.30;;;;;;;;;;5050899;28;20033;-67
2023/04/17 00:27:56;;;;;;;1.50;1.40;;;;;;;;;;5050751;28;20048;-67
2023/04/17 00:30:22;;;;;;;1.23;1.20;;;;;;;;;;5051558;28;20076;-67
2023/04/17 00:32:47;;;;;;;1.40;1.30;;;;;;;;;;5051439;28;20079;-67
2023/04/17 00:35:13;;;;;;;1.85;1.75;;;;;;;;;;5050469;28;20048;-68
2023/04/17 00:37:38;;;;;;;1.77;1.10;;;;;;;;;;5051023;28;20037;-66
2023/04/17 00:40:05;;;;;;;1.45;1.35;;;;;;;;;;5050691;28;20044;-68
2023/04/17 00:42:30;;;;;;;1.40;1.30;;;;;;;;;;5048615;28;20557;-66
2023/04/17 00:44:56;;;;;;;1.00;1.00;;;;;;;;;;5050732;28;20150;-67
2023/04/17 00:47:21;;;;;;;1.80;1.38;;;;;;;;;;5043419;28;20037;-67
2023/04/17 00:49:49;;;;;;;1.30;1.20;;;;;;;;;;5049461;28;20041;-69
2023/04/17 00:52:30;;;;;;;1.50;1.40;;;;;;;;;;5050284;28;20045;-68
2023/04/17 00:54:57;;;;;;;1.58;1.48;;;;;;;;;;5049361;28;20092;-66
2023/04/17 00:57:24;;;;;;;1.50;1.40;;;;;;;;;;5050232;28;20049;-66
2023/04/17 00:59:49;;;;;;;1.42;1.30;;;;;;;;;;5050494;28;20084;-70
2023/04/17 01:02:16;;;;;;;3.00;1.25;;;;;;;;;;5048519;28;20083;-70
2023/04/17 01:04:41;;;;;;;1.40;1.30;;;;;;;;;;5066029;28;20193;-67
2023/04/17 01:07:07;;;;;;;1.30;1.20;;;;;;;;;;5040561;28;20498;-68
2023/04/17 01:09:32;;;;;;;1.45;1.35;;;;;;;;;;5029905;28;20042;-67
2023/04/17 01:12:20;;;;;;;1.45;1.35;;;;;;;;;;5028324;28;20053;-68
2023/04/17 01:14:48;;;;;;;1.50;1.40;;;;;;;;;;5029294;28;20578;-70
2023/04/17 01:17:13;;;;;;;1.60;1.50;;;;;;;;;;5037828;28;20129;-67
2023/04/17 01:19:40;;;;;;;1.70;1.60;;;;;;;;;;5047613;28;20125;-69
2023/04/17 01:22:06;;;;;;;1.65;1.55;;;;;;;;;;5046212;28;20048;-70
2023/04/17 01:24:31;;;;;;;1.60;1.50;;;;;;;;;;5063248;28;20139;-67
2023/04/17 01:26:57;;;;;;;1.48;1.38;;;;;;;;;;5039975;28;20565;-66
2023/04/17 01:29:22;;;;;;;1.80;1.70;;;;;;;;;;5028891;28;20581;-68
2023/04/17 01:31:48;;;;;;;1.80;1.70;;;;;;;;;;5023378;28;20038;-69
2023/04/17 01:34:14;;;;;;;4.30;1.58;;;;;;;;;;5023373;28;20553;-66
2023/04/17 01:36:40;;;;;;;1.67;1.50;;;;;;;;;;5028793;28;20498;-67
2023/04/17 01:39:06;;;;;;;1.50;1.40;;;;;;;;;;5029305;28;20061;-72
2023/04/17 01:41:31;;;;;;;1.35;1.25;;;;;;;;;;5028634;28;20553;-67
2023/04/17 01:43:57;;;;;;;1.50;1.40;;;;;;;;;;5041940;28;20045;-69
2023/04/17 01:46:22;;;;;;;1.73;1.40;;;;;;;;;;5033615;28;20045;-66
2023/04/17 01:48:48;;;;;;;1.45;1.35;;;;;;;;;;5014001;28;20563;-66
2023/04/17 01:51:13;;;;;;;2.00;1.73;;;;;;;;;;5039433;28;20557;-68
2023/04/17 01:53:39;;;;;;;1.85;1.70;;;;;;;;;;5033668;28;20098;-65
2023/04/17 01:56:05;;;;;;;4.75;2.08;;;;;;;;;;5029368;28;20037;-66
2023/04/17 01:58:30;;;;;;;2.50;2.30;;;;;;;;;;5028274;28;20099;-66
2023/04/17 02:00:56;;;;;;;2.50;2.00;;;;;;;;;;5027533;28;20402;-67
2023/04/17 02:03:23;;;;;;;3.53;2.70;;;;;;;;;;5028227;28;20108;-70
2023/04/17 02:05:49;;;;;;;2.63;2.42;;;;;;;;;;5029702;28;20060;-68
2023/04/17 02:08:15;;;;;;;2.47;2.22;;;;;;;;;;5027877;28;20053;-68
2023/04/17 02:10:41;;;;;;;2.40;2.20;;;;;;;;;;5027625;28;20053;-66
2023/04/17 02:13:07;;;;;;;3.55;2.53;;;;;;;;;;5029159;28;20410;-67
2023/04/17 02:15:33;;;;;;;2.97;2.67;;;;;;;;;;5027964;28;20394;-67
2023/04/17 02:17:58;;;;;;;3.13;2.75;;;;;;;;;;5044192;28;20103;-66
2023/04/17 02:20:24;;;;;;;3.95;1.88;;;;;;;;;;5028386;28;20048;-69
2023/04/17 02:22:50;;;;;;;2.05;1.85;;;;;;;;;;5028628;28;20079;-67
2023/04/17 02:25:15;;;;;;;1.83;1.73;;;;;;;;;;5029169;28;20098;-67
2023/04/17 02:27:40;;;;;;;4.38;2.75;;;;;;;;;;5029576;28;20114;-68
2023/04/17 02:30:07;;;;;;;2.33;1.77;;;;;;;;;;5027365;28;20048;-68
2023/04/17 02:32:32;;;;;;;2.78;2.50;;;;;;;;;;5032301;28;20431;-69
2023/04/17 02:34:58;;;;;;;3.55;2.58;;;;;;;;;;5047831;28;20040;-68
2023/04/17 02:37:23;;;;;;;3.83;3.40;;;;;;;;;;5047757;28;20041;-68
2023/04/17 02:39:50;;;;;;;3.47;3.17;;;;;;;;;;5048055;28;20048;-67
2023/04/17 02:42:16;;;;;;;2.58;2.38;;;;;;;;;;5043795;28;20042;-67
2023/04/17 02:44:41;;;;;;;5.00;2.88;;;;;;;;;;5019380;28;20256;-67
2023/04/17 02:47:07;;;;;;;3.40;3.00;;;;;;;;;;5027552;28;20049;-68
2023/04/17 02:49:33;;;;;;;4.00;3.28;;;;;;;;;;5028102;28;20542;-68
2023/04/17 02:51:58;;;;;;;2.97;2.70;;;;;;;;;;5027136;28;20041;-68
2023/04/17 02:54:24;;;;;;;3.35;2.83;;;;;;;;;;5027135;28;20052;-68
2023/04/17 02:56:51;;;;;;;3.60;2.95;;;;;;;;;;5027638;28;20083;-68
2023/04/17 02:59:16;;;;;;;2.63;2.42;;;;;;;;;;5029015;28;20057;-68
2023/04/17 03:01:44;;;;;;;2.67;2.47;;;;;;;;;;5027554;28;20053;-68
2023/04/17 03:04:10;;;;;;;2.50;2.30;;;;;;;;;;5026972;28;20171;-67
2023/04/17 03:06:36;;;;;;;3.03;2.70;;;;;;;;;;5031369;28;20124;-68
2023/04/17 03:09:02;;;;;;;2.92;2.72;;;;;;;;;;5031607;28;20052;-68
2023/04/17 03:11:28;;;;;;;4.18;3.17;;;;;;;;;;5031325;28;20049;-68
2023/04/17 03:13:53;;;;;;;3.88;3.40;;;;;;;;;;5031286;28;20048;-71
2023/04/17 03:16:20;;;;;;;4.10;3.65;;;;;;;;;;5032056;28;20490;-68
2023/04/17 03:18:46;;;;;;;4.22;3.83;;;;;;;;;;5031267;28;20052;-68
2023/04/17 03:21:11;;;;;;;4.47;4.07;;;;;;;;;;5032796;28;20763;-68
2023/04/17 03:23:36;;;;;;;5.43;4.32;;;;;;;;;;5014700;28;20045;-68
2023/04/17 03:26:04;;;;;;;3.92;3.53;;;;;;;;;;5031941;28;20137;-68
2023/04/17 03:28:31;;;;;;;4.10;3.08;;;;;;;;;;5030735;28;20465;-67
2023/04/17 03:30:58;;;;;;;2.92;2.67;;;;;;;;;;5032361;28;20551;-67
2023/04/17 03:33:24;;;;;;;3.40;2.50;;;;;;;;;;5028699;28;20041;-68
2023/04/17 03:35:51;;;;;;;2.70;2.47;;;;;;;;;;5025193;28;20057;-67
2023/04/17 03:38:16;;;;;;;2.35;2.15;;;;;;;;;;5029485;28;20100;-68
2023/04/17 03:40:42;;;;;;;4.53;3.42;;;;;;;;;;5028136;28;20053;-67
2023/04/17 03:43:09;;;;;;;5.30;3.80;;;;;;;;;;5023489;28;20537;-68
2023/04/17 03:45:35;;;;;;;6.43;4.00;;;;;;;;;;5030832;28;20073;-68
2023/04/17 03:48:01;;;;;;;6.38;4.65;;;;;;;;;;5030404;28;20045;-67
2023/04/17 03:50:26;;;;;;;13.07;6.30;;;;;;;;;;5030261;28;20033;-67
2023/04/17 03:52:55;;;;;;;10.45;5.68;;;;;;;;;;5030284;28;20124;-68
2023/04/17 03:55:22;;;;;;;12.73;6.22;;;;;;;;;;5030588;28;20121;-68
2023/04/17 03:57:50;;;;;;;12.75;6.30;;;;;;;;;;5032247;28;20125;-68
2023/04/17 04:00:17;;;;;;;13.75;6.72;;;;;;;;;;5030539;28;20104;-68
2023/04/17 04:02:49;;;;;;;16.50;6.70;;;;;;;;;;5030382;28;20065;-68
2023/04/17 04:05:20;;;;;;;12.48;5.80;;;;;;;;;;5030553;28;20132;-68
2023/04/17 04:07:45;;;;;;;18.13;6.97;;;;;;;;;;5027181;28;20745;-69
2023/04/17 04:10:17;;;;;;;13.68;6.47;;;;;;;;;;5035102;28;20059;-68
2023/04/17 04:12:42;;;;;;;12.88;6.07;;;;;;;;;;5007972;28;20045;-70
2023/04/17 04:15:08;;;;;;;12.32;6.00;;;;;;;;;;5012678;28;20502;-68
2023/04/17 04:17:34;;;;;;;13.68;5.47;;;;;;;;;;5016106;28;20115;-68
2023/04/17 04:20:02;;;;;;;15.02;6.22;;;;;;;;;;5020641;28;20045;-69
2023/04/17 04:22:28;;;;;;;13.25;6.43;;;;;;;;;;5011273;28;20050;-68
2023/04/17 04:24:55;;;;;;;14.38;6.10;;;;;;;;;;5014826;28;20053;-69
2023/04/17 04:27:31;;;;;;;16.67;6.80;;;;;;;;;;5020946;28;21184;-68
2023/04/17 04:30:00;;;;;;;5.68;3.42;;;;;;;;;;5020756;28;20045;-69
2023/04/17 04:32:30;;;;;;;9.35;4.88;;;;;;;;;;5025816;28;20067;-71
2023/04/17 04:34:57;;;;;;;13.60;6.65;;;;;;;;;;5013359;28;20436;-70
2023/04/17 04:37:28;;;;;;;13.88;6.68;;;;;;;;;;5020779;28;20056;-72
2023/04/17 04:40:01;;;;;;;14.55;6.45;;;;;;;;;;5020156;28;20037;-72
2023/04/17 04:42:28;;;;;;;16.70;7.07;;;;;;;;;;5002671;28;20183;-71
2023/04/17 04:45:09;;;;;;;13.80;6.15;;;;;;;;;;5004959;28;20053;-72
2023/04/17 04:47:35;;;;;;;17.27;7.00;;;;;;;;;;5019366;28;20124;-71
2023/04/17 04:50:02;;;;;;;19.17;8.10;;;;;;;;;;5020222;28;20041;-71
2023/04/17 04:52:27;;;;;;;13.48;7.22;;;;;;;;;;5018806;28;20382;-71
2023/04/17 04:54:56;;;;;;;14.65;6.25;;;;;;;;;;5019209;28;20037;-71
2023/04/17 04:57:23;;;;;;;16.52;6.43;;;;;;;;;;5017159;28;20053;-71
2023/04/17 04:59:52;;;;;;;15.32;6.15;;;;;;;;;;5018797;28;20828;-71
2023/04/17 05:02:29;;;;;;;14.60;6.85;;;;;;;;;;5019973;28;20049;-71
2023/04/17 05:04:56;;;;;;;13.20;6.70;;;;;;;;;;5020179;28;20044;-71
2023/04/17 05:07:22;;;;;;;14.25;7.20;;;;;;;;;;5019078;28;20038;-71
2023/04/17 05:09:48;;;;;;;12.77;6.78;;;;;;;;;;5020122;28;20415;-70
2023/04/17 05:12:15;;;;;;;15.05;7.15;;;;;;;;;;5021969;28;20045;-70
2023/04/17 05:14:41;;;;;;;14.73;7.38;;;;;;;;;;5038767;28;20122;-70
2023/04/17 05:17:07;;;;;;;13.40;6.95;;;;;;;;;;5038185;28;20040;-71
2023/04/17 05:19:33;;;;;;;14.20;6.97;;;;;;;;;;5037895;28;20049;-70
2023/04/17 05:22:02;;;;;;;10.07;5.95;;;;;;;;;;5038812;28;20145;-70
2023/04/17 05:24:31;;;;;;;8.18;5.80;;;;;;;;;;5039518;28;20052;-70
2023/04/17 05:26:57;;;;;;;8.20;4.95;;;;;;;;;;5039965;28;20052;-70
2023/04/17 05:29:24;;;;;;;6.57;4.82;;;;;;;;;;5038927;28;20167;-70
2023/04/17 05:31:50;;;;;;;6.57;4.95;;;;;;;;;;5039825;28;20041;-70
2023/04/17 05:34:30;;;;;;;8.82;5.85;;;;;;;;;;5036008;28;20041;-70
2023/04/17 05:36:56;;;;;;;7.13;5.50;;;;;;;;;;4998081;28;20140;-70
2023/04/17 05:39:22;;;;;;;7.88;5.45;;;;;;;;;;5019058;28;20647;-70
2023/04/17 05:41:48;;;;;;;8.32;5.65;;;;;;;;;;5019269;28;20771;-70
2023/04/17 05:44:13;;;;;;;9.15;5.70;;;;;;;;;;5013278;28;20498;-70
2023/04/17 05:46:39;;;;;;;9.60;6.25;;;;;;;;;;5035163;28;20159;-70
2023/04/17 05:49:04;;;;;;;10.25;6.80;;;;;;;;;;5019890;28;20056;-70
2023/04/17 05:51:29;;;;;;;12.15;6.45;;;;;;;;;;4994934;28;20045;-69
2023/04/17 05:53:55;;;;;;;11.38;5.78;;;;;;;;;;5018650;28;20372;-74
2023/04/17 05:56:22;;;;;;;11.85;6.07;;;;;;;;;;5032680;28;20048;-75
2023/04/17 05:58:48;;;;;;;8.88;5.25;;;;;;;;;;5010952;28;20127;-72
2023/04/17 06:01:15;;;;;;;8.10;4.97;;;;;;;;;;5018101;28;20045;-72
2023/04/17 06:03:41;;;;;;;10.63;6.05;;;;;;;;;;5015389;28;21114;-73
2023/04/17 06:06:11;;;;;;;8.95;5.05;;;;;;;;;;5016156;28;20049;-72
2023/04/17 06:08:36;;;;;;;9.98;5.68;;;;;;;;;;5017601;28;20412;-72
2023/04/17 06:11:03;;;;;;;9.27;5.60;;;;;;;;;;5019177;28;20060;-70
2023/04/17 06:13:29;;;;;;;7.57;5.28;;;;;;;;;;5016678;28;20576;-70
2023/04/17 06:15:55;;;;;;;7.30;5.30;;;;;;;;;;5017416;28;20041;-71
2023/04/17 06:18:21;;;;;;;6.93;4.88;;;;;;;;;;5018136;28;20411;-71
2023/04/17 06:20:46;;;;;;;5.97;4.38;;;;;;;;;;5019257;28;20068;-71
2023/04/17 06:23:12;;;;;;;6.88;4.40;;;;;;;;;;5018253;28;20175;-71
2023/04/17 06:25:37;;;;;;;7.13;4.68;;;;;;;;;;5019411;28;20045;-71
2023/04/17 06:28:03;;;;;;;5.47;4.15;;;;;;;;;;5018906;28;20441;-71
2023/04/17 06:30:28;;;;;;;6.03;4.32;;;;;;;;;;5020868;28;20053;-72
2023/04/17 06:32:55;;;;;;;6.43;4.85;;;;;;;;;;5002798;28;20127;-70
2023/04/17 06:35:21;;;;;;;8.07;4.53;;;;;;;;;;5018333;28;20460;-70
2023/04/17 06:37:52;;;;;;;8.07;5.15;;;;;;;;;;5019291;28;20497;-70
2023/04/17 06:40:17;;;;;;;8.10;5.22;;;;;;;;;;5018615;28;20053;-70
2023/04/17 06:42:43;;;;;;;11.55;6.22;;;;;;;;;;5020464;28;20496;-70
2023/04/17 06:45:12;;;;;;;11.27;5.97;;;;;;;;;;5011816;28;20098;-70
2023/04/17 06:47:37;;;;;;;10.30;5.78;;;;;;;;;;5020541;28;20041;-70
2023/04/17 06:50:04;;;;;;;10.18;6.35;;;;;;;;;;5018381;28;20398;-70
2023/04/17 06:52:29;;;;;;;12.65;7.50;;;;;;;;;;5020291;28;20045;-70
2023/04/17 06:54:55;;;;;;;11.10;6.28;;;;;;;;;;5020334;28;20044;-73
2023/04/17 06:57:21;;;;;;;13.35;7.75;;;;;;;;;;5018331;28;20053;-73
2023/04/17 06:59:47;;;;;;;14.30;7.75;;;;;;;;;;5019869;28;20171;-72
2023/04/17 07:02:12;;;;;;;12.10;6.65;;;;;;;;;;5019456;28;20504;-72
2023/04/17 07:04:38;;;;;;;11.15;7.00;;;;;;;;;;5020271;28;20044;-72
2023/04/17 07:07:03;;;;;;;10.98;5.88;;;;;;;;;;5020057;28;20041;-74
2023/04/17 07:09:29;;;;;;;11.68;6.20;;;;;;;;;;5019428;28;20049;-72
2023/04/17 07:11:54;;;;;;;11.80;6.30;;;;;;;;;;5020071;28;20053;-72
2023/04/17 07:14:21;;;;;;;11.85;6.35;;;;;;;;;;5019439;28;20053;-72
2023/04/17 07:16:47;;;;;;;10.18;5.65;;;;;;;;;;5019771;28;20069;-73
2023/04/17 07:19:12;;;;;;;11.27;5.15;;;;;;;;;;5019024;28;20164;-72
2023/04/17 07:21:39;;;;;;;11.57;5.63;;;;;;;;;;5019911;28;20157;-73
2023/04/17 07:24:05;;;;;;;9.13;4.30;;;;;;;;;;5019485;28;20216;-72
2023/04/17 07:26:30;;;;;;;13.15;5.78;;;;;;;;;;5019973;28;20053;-72
2023/04/17 07:28:56;;;;;;;11.30;5.60;;;;;;;;;;5018734;28;20045;-72
2023/04/17 07:31:21;;;;;;;12.60;4.68;;;;;;;;;;5019166;28;20072;-71
2023/04/17 07:33:47;;;;;;;14.70;6.35;;;;;;;;;;5019670;28;20053;-72
2023/04/17 07:36:12;;;;;;;13.48;6.13;;;;;;;;;;5019444;28;20481;-71
2023/04/17 07:38:38;;;;;;;13.75;6.50;;;;;;;;;;5019977;28;20138;-72
2023/04/17 07:41:04;;;;;;;14.52;6.00;;;;;;;;;;5019215;28;20056;-72
2023/04/17 07:43:29;;;;;;;13.43;6.00;;;;;;;;;;5019756;28;20048;-72
2023/04/17 07:45:55;;;;;;;15.02;6.20;;;;;;;;;;5019858;28;20484;-72
2023/04/17 07:48:21;;;;;;;13.50;6.03;;;;;;;;;;5019422;28;20048;-72
2023/04/17 07:50:50;;;;;;;16.25;7.00;;;;;;;;;;5019924;28;20045;-72
2023/04/17 07:53:20;;;;;;;14.80;6.90;;;;;;;;;;5022192;28;20041;-72
2023/04/17 07:55:47;;;;;;;16.20;6.57;;;;;;;;;;5023369;28;20512;-72
2023/04/17 07:58:12;;;;;;;15.05;6.32;;;;;;;;;;5023002;28;20046;-72
2023/04/17 08:00:38;;;;;;;14.73;5.85;;;;;;;;;;5023196;28;20037;-72
2023/04/17 08:03:04;;;;;;;13.07;5.93;;;;;;;;;;5022364;28;20098;-72
2023/04/17 08:05:30;;;;;;;15.48;6.13;;;;;;;;;;5023257;28;20114;-72
2023/04/17 08:07:56;;;;;;;13.40;6.40;;;;;;;;;;5023462;28;20458;-72
2023/04/17 08:10:21;;;;;;;12.10;5.78;;;;;;;;;;5022550;28;20526;-72
2023/04/17 08:12:47;;;;;;;19.75;6.40;;;;;;;;;;5022933;28;20863;-72
2023/04/17 08:15:12;;;;;;;16.80;7.10;;;;;;;;;;5021847;28;20045;-73
2023/04/17 08:17:38;;;;;;;17.70;6.90;;;;;;;;;;5023204;28;20049;-72
2023/04/17 08:20:10;;;;;;;11.50;5.82;;;;;;;;;;5022335;28;20064;-72
2023/04/17 08:22:40;;;;;;;18.05;8.65;;;;;;;;;;5023047;28;20414;-72
2023/04/17 08:25:08;;;;;;;16.75;6.97;;;;;;;;;;5022075;28;20052;-72
2023/04/17 08:27:35;;;;;;;14.48;6.18;;;;;;;;;;5022561;28;20069;-72
2023/04/17 08:30:01;;;;;;;14.30;6.07;;;;;;;;;;5022530;28;20126;-72
2023/04/17 08:32:27;;;;;;;16.80;6.15;;;;;;;;;;5022373;28;20077;-72
2023/04/17 08:34:52;;;;;;;17.40;6.72;;;;;;;;;;5022803;28;20135;-72
2023/04/17 08:37:17;;;;;;;15.75;5.80;;;;;;;;;;5021451;28;20092;-72
2023/04/17 08:39:43;;;;;;;14.98;6.43;;;;;;;;;;5022737;28;20053;-73
2023/04/17 08:42:13;;;;;;;10.30;5.22;;;;;;;;;;5022058;28;20049;-71
2023/04/17 08:44:38;;;;;;;16.88;6.13;;;;;;;;;;5022432;28;20045;-72
2023/04/17 08:47:07;;;;;;;16.30;6.40;;;;;;;;;;5021287;28;20403;-72
2023/04/17 08:49:34;;;;;;;13.73;6.13;;;;;;;;;;5022326;28;20142;-72
2023/04/17 08:52:04;;;;;;;11.27;6.10;;;;;;;;;;5020470;28;20760;-73
2023/04/17 08:54:32;;;;;;;13.20;5.78;;;;;;;;;;5022396;28;20060;-73
2023/04/17 08:57:01;;;;;;;12.90;6.10;;;;;;;;;;5022438;28;20868;-72
2023/04/17 08:59:26;;;;;;;16.15;6.10;;;;;;;;;;5021477;28;20540;-72
2023/04/17 09:02:02;;;;;;;15.85;5.63;;;;;;;;;;5022084;28;20116;-72
2023/04/17 09:04:38;;;;;;;12.15;4.80;;;;;;;;;;5018493;28;20095;-72
2023/04/17 09:07:05;;;;;;;11.52;5.18;;;;;;;;;;5022339;28;20049;-72
2023/04/17 09:09:46;;;;;;;13.65;5.72;;;;;;;;;;5021190;28;20563;-72
2023/04/17 09:12:12;;;;;;;16.42;6.38;;;;;;;;;;5021498;28;20041;-72
2023/04/17 09:14:37;;;;;;;13.45;5.85;;;;;;;;;;5021855;28;20413;-72
2023/04/17 09:17:02;;;;;;;19.70;7.22;;;;;;;;;;5021823;28;20037;-72
2023/04/17 09:19:28;;;;;;;16.00;7.03;;;;;;;;;;5020799;28;20058;-72
2023/04/17 09:21:53;;;;;;;18.52;7.63;;;;;;;;;;5021821;28;20060;-72
2023/04/17 09:24:33;;;;;;;15.30;6.30;;;;;;;;;;5020885;28;20056;-72
2023/04/17 09:27:19;;;;;;;18.98;7.13;;;;;;;;;;5021793;28;20056;-72
2023/04/17 09:30:02;;;;;;;18.15;7.70;;;;;;;;;;5021869;28;20402;-73
2023/04/17 09:32:29;;;;;;;13.43;6.55;;;;;;;;;;5020157;28;20053;-72
2023/04/17 09:34:57;;;;;;;15.52;7.30;;;;;;;;;;5021483;28;20041;-71
2023/04/17 09:37:23;;;;;;;14.85;7.03;;;;;;;;;;5021549;28;20041;-71
2023/04/17 09:39:59;;;;;;;18.75;8.82;;;;;;;;;;5021911;28;20063;-72
2023/04/17 09:42:28;;;;;;;19.60;7.95;;;;;;;;;;5023907;28;20041;-70
2023/04/17 09:44:53;;;;;;;18.63;7.20;;;;;;;;;;5028845;28;20053;-70
2023/04/17 09:47:21;;;;;;;18.58;8.15;;;;;;;;;;5018597;28;20080;-72
2023/04/17 09:49:51;;;;;;;19.27;8.48;;;;;;;;;;5019798;28;20033;-71
2023/04/17 09:52:24;;;;;;;22.75;8.38;;;;;;;;;;5018332;28;20136;-73
2023/04/17 09:54:52;;;;;;;18.63;8.55;;;;;;;;;;5021142;28;20045;-70
2023/04/17 09:57:18;;;;;;;22.83;8.93;;;;;;;;;;5021011;28;20115;-73
2023/04/17 09:59:46;;;;;;;19.27;8.63;;;;;;;;;;5021190;28;20030;-72
2023/04/17 10:02:13;;;;;;;18.35;8.50;;;;;;;;;;5019432;28;20041;-72
2023/04/17 10:04:42;;;;;;;21.27;9.10;;;;;;;;;;5019965;28;20049;-70
2023/04/17 10:07:08;;;;;;;16.83;8.13;;;;;;;;;;5021028;28;20049;-71
2023/04/17 10:09:33;;;;;;;16.65;9.07;;;;;;;;;;5021085;28;20056;-71
2023/04/17 10:12:00;;;;;;;20.05;9.85;;;;;;;;;;5020478;28;20052;-71
2023/04/17 10:14:31;;;;;;;16.33;8.48;;;;;;;;;;5019663;28;20472;-72
2023/04/17 10:16:57;;;;;;;18.00;8.55;;;;;;;;;;5018996;28;20139;-72
2023/04/17 10:19:26;;;;;;;19.67;9.45;;;;;;;;;;5035421;28;20136;-72
2023/04/17 10:22:31;;;;;;;19.05;9.82;;;;;;;;;;5019145;28;20049;-71
2023/04/17 10:25:11;;;;;;;19.20;10.25;;;;;;;;;;4972629;28;20042;-72
2023/04/17 10:27:37;;;;;;;18.67;9.38;;;;;;;;;;4962727;28;20078;-71
2023/04/17 10:30:05;;;;;;;15.82;9.18;;;;;;;;;;5001900;28;20072;-72
2023/04/17 10:32:33;;;;;;;15.50;8.57;;;;;;;;;;5020617;28;20177;-70
2023/04/17 10:35:00;;;;;;;16.30;8.93;;;;;;;;;;5020555;28;20120;-72
2023/04/17 10:37:47;;;;;;;17.65;10.55;;;;;;;;;;5019671;28;20045;-72
2023/04/17 10:40:19;;;;;;;15.88;9.95;;;;;;;;;;5020186;28;20046;-72
2023/04/17 10:43:23;;;;;;;;;;;;;;;;;;5021356;28;20557;-71
2023/04/17 10:45:58;;;;;;;20.02;10.13;;;;;;;;;;4978588;28;19947;-72
2023/04/17 10:48:37;;;;;;;16.88;9.90;;;;;;;;;;4997033;28;20064;-72
2023/04/17 10:51:25;;;;;;;20.10;10.48;;;;;;;;;;5011455;28;20041;-71
2023/04/17 10:53:56;;;;;;;19.30;10.05;;;;;;;;;;5016204;28;20128;-71
2023/04/17 10:56:57;;;;;;;16.98;9.02;;;;;;;;;;5017022;28;20137;-72
2023/04/17 10:59:28;;;;;;;18.48;11.10;;;;;;;;;;4966701;28;20093;-72
2023/04/17 11:01:56;;;;;;;17.40;9.90;;;;;;;;;;5008646;28;20041;-71
2023/04/17 11:04:32;;;;;;;17.10;10.43;;;;;;;;;;5019390;28;20045;-71
2023/04/17 11:06:59;;;;;;;14.88;10.05;;;;;;;;;;5020155;28;20041;-70
2023/04/17 11:09:27;;;;;;;15.27;10.55;;;;;;;;;;5018837;28;20135;-70
2023/04/17 11:11:53;;;;;;;16.83;10.45;;;;;;;;;;5018902;28;20179;-70
2023/04/17 11:14:20;;;;;;;18.02;10.70;;;;;;;;;;5019677;28;20148;-70
2023/04/17 11:16:48;;;;;;;12.43;8.80;;;;;;;;;;5017979;28;20041;-70
2023/04/17 11:19:18;;;;;;;14.57;10.02;;;;;;;;;;5020065;28;20502;-69
2023/04/17 11:21:46;;;;;;;15.05;9.85;;;;;;;;;;5013870;28;21070;-70
2023/04/17 11:24:11;;;;;;;14.57;9.75;;;;;;;;;;5019396;28;20569;-70
2023/04/17 11:26:41;;;;;;;14.65;9.98;;;;;;;;;;5020746;28;20053;-71
2023/04/17 11:29:18;;;;;;;15.35;10.30;;;;;;;;;;5023740;28;20053;-71
2023/04/17 11:31:44;;;;;;;12.70;9.32;;;;;;;;;;5023135;28;20077;-71
2023/04/17 11:34:10;;;;;;;14.93;9.75;;;;;;;;;;5022553;28;20053;-70
2023/04/17 11:36:36;;;;;;;13.75;9.60;;;;;;;;;;5023390;28;20052;-70
2023/04/17 11:39:01;;;;;;;16.10;10.35;;;;;;;;;;5023254;28;20069;-70
2023/04/17 11:41:37;;;;;;;18.05;11.20;;;;;;;;;;5021552;28;20598;-69
2023/04/17 11:44:02;;;;;;;19.63;11.80;;;;;;;;;;5015004;28;20095;-70
2023/04/17 11:46:29;;;;;;;16.05;10.48;;;;;;;;;;5022843;28;20053;-69
2023/04/17 11:48:54;;;;;;;27.45;11.70;;;;;;;;;;5022679;28;21116;-70
2023/04/17 11:51:19;;;;;;;18.80;10.95;;;;;;;;;;5023073;28;20148;-70
2023/04/17 11:53:47;;;;;;;17.75;10.85;;;;;;;;;;5022141;28;20049;-70
2023/04/17 11:56:17;;;;;;;14.48;9.93;;;;;;;;;;5021707;28;20049;-70
2023/04/17 11:58:56;;;;;;;12.88;9.65;;;;;;;;;;5021162;28;20042;-70
2023/04/17 12:01:24;;;;;;;13.93;9.82;;;;;;;;;;5020520;28;20450;-71
2023/04/17 12:03:51;;;;;;;14.70;8.88;;;;;;;;;;5022933;28;20494;-71
2023/04/17 12:06:16;;;;;;;12.60;9.25;;;;;;;;;;5034547;28;20051;-70
2023/04/17 12:08:50;;;;;;;13.88;10.48;;;;;;;;;;5009114;28;20041;-70
2023/04/17 12:11:24;;;;;;;13.23;9.50;;;;;;;;;;5018144;28;20052;-70
2023/04/17 12:13:54;;;;;;;15.73;10.45;;;;;;;;;;5015311;28;20048;-70
2023/04/17 12:16:20;;;;;;;19.17;11.18;;;;;;;;;;5018183;28;20058;-70
2023/04/17 12:18:45;;;;;;;16.77;11.23;;;;;;;;;;5015963;28;20056;-70
2023/04/17 12:21:11;;;;;;;15.35;10.95;;;;;;;;;;5022551;28;20053;-70
2023/04/17 12:23:55;;;;;;;14.05;10.13;;;;;;;;;;5014933;28;20464;-70
2023/04/17 12:26:20;;;;;;;17.92;10.90;;;;;;;;;;5038414;28;20080;-70
2023/04/17 12:28:46;;;;;;;14.48;11.23;;;;;;;;;;5042555;28;20081;-70
2023/04/17 12:31:11;;;;;;;14.68;10.35;;;;;;;;;;5041817;28;20040;-70
2023/04/17 12:33:37;;;;;;;13.10;9.77;;;;;;;;;;5042225;28;20063;-70
2023/04/17 12:36:03;;;;;;;13.85;9.13;;;;;;;;;;5039645;28;20044;-73
2023/04/17 12:38:29;;;;;;;11.57;9.15;;;;;;;;;;5031669;28;20524;-70
2023/04/17 12:40:55;;;;;;;12.57;9.50;;;;;;;;;;5037796;28;20049;-70
2023/04/17 12:43:21;;;;;;;15.82;9.55;;;;;;;;;;5037900;28;20090;-70
2023/04/17 12:45:46;;;;;;;14.38;9.50;;;;;;;;;;5040121;28;20758;-69
2023/04/17 12:48:13;;;;;;;13.10;9.75;;;;;;;;;;5038506;28;20083;-70
2023/04/17 12:50:42;;;;;;;12.93;9.43;;;;;;;;;;5035313;28;20556;-70
2023/04/17 12:53:12;;;;;;;11.18;8.48;;;;;;;;;;5036641;28;20048;-70
2023/04/17 12:55:42;;;;;;;10.88;8.55;;;;;;;;;;5038593;28;20056;-70
2023/04/17 12:58:10;;;;;;;11.40;7.88;;;;;;;;;;5039445;28;20056;-71
2023/04/17 13:00:36;;;;;;;8.38;6.25;;;;;;;;;;5039149;28;20048;-70
2023/04/17 13:03:02;;;;;;;7.72;6.38;;;;;;;;;;5039795;28;20045;-72
2023/04/17 13:05:28;;;;;;;7.75;6.18;;;;;;;;;;5039910;28;20045;-70
2023/04/17 13:07:54;;;;;;;7.43;6.45;;;;;;;;;;5040600;28;20586;-70
2023/04/17 13:10:22;;;;;;;9.38;7.07;;;;;;;;;;5035256;28;20044;-70
2023/04/17 13:12:47;;;;;;;8.70;7.05;;;;;;;;;;5039395;28;20056;-70
2023/04/17 13:15:13;;;;;;;8.98;7.38;;;;;;;;;;5039363;28;20040;-70
2023/04/17 13:17:40;;;;;;;9.73;6.60;;;;;;;;;;5039672;28;20498;-70
2023/04/17 13:20:06;;;;;;;9.10;7.32;;;;;;;;;;5037182;28;21230;-70
2023/04/17 13:22:31;;;;;;;8.27;6.72;;;;;;;;;;5039504;28;20535;-70
2023/04/17 13:24:58;;;;;;;10.18;7.15;;;;;;;;;;5039371;28;20048;-70
2023/04/17 13:27:24;;;;;;;9.40;7.32;;;;;;;;;;5039235;28;20173;-69
2023/04/17 13:29:50;;;;;;;11.45;8.10;;;;;;;;;;5038832;28;20892;-68
2023/04/17 13:32:15;;;;;;;11.48;7.35;;;;;;;;;;5037547;28;20761;-70
2023/04/17 13:34:41;;;;;;;10.82;7.97;;;;;;;;;;5039396;28;20049;-70
2023/04/17 13:37:06;;;;;;;10.32;7.18;;;;;;;;;;5039753;28;20506;-72
2023/04/17 13:39:32;;;;;;;11.75;8.48;;;;;;;;;;5039670;28;20132;-70
2023/04/17 13:41:57;;;;;;;7.57;5.88;;;;;;;;;;5039652;28;20091;-71
2023/04/17 13:44:24;;;;;;;10.77;8.38;;;;;;;;;;5038115;28;20055;-71
2023/04/17 13:46:49;;;;;;;14.20;9.00;;;;;;;;;;5037869;28;20049;-71
2023/04/17 13:49:15;;;;;;;10.43;7.90;;;;;;;;;;5038606;28;20045;-71
2023/04/17 13:51:40;;;;;;;13.40;7.90;;;;;;;;;;5039843;28;20048;-70
2023/04/17 13:54:07;;;;;;;9.98;7.18;;;;;;;;;;5036919;28;20417;-70
2023/04/17 13:56:33;;;;;;;10.85;7.43;;;;;;;;;;5037691;28;20045;-70
2023/04/17 13:58:58;;;;;;;8.95;6.22;;;;;;;;;;5039124;28;20049;-70
2023/04/17 14:01:23;;;;;;;9.68;6.93;;;;;;;;;;5038174;28;20069;-71
2023/04/17 14:03:49;;;;;;;6.00;5.07;;;;;;;;;;5038912;28;20052;-70
2023/04/17 14:06:16;;;;;;;7.43;5.45;;;;;;;;;;5032816;28;20049;-71
2023/04/17 14:08:43;;;;;;;4.97;4.35;;;;;;;;;;5037086;28;20078;-71
2023/04/17 14:11:08;;;;;;;4.65;3.75;;;;;;;;;;5040882;28;20037;-69
2023/04/17 14:13:34;;;;;;;4.03;3.63;;;;;;;;;;5039815;28;20041;-69
2023/04/17 14:15:59;;;;;;;4.80;3.88;;;;;;;;;;5040104;28;20052;-69
2023/04/17 14:18:25;;;;;;;3.53;3.22;;;;;;;;;;5018126;28;20045;-69
2023/04/17 14:20:53;;;;;;;4.38;3.88;;;;;;;;;;5016940;28;20064;-69
2023/04/17 14:23:19;;;;;;;4.53;4.13;;;;;;;;;;5017934;28;20052;-69
2023/04/17 14:25:45;;;;;;;4.38;3.97;;;;;;;;;;5018143;28;20041;-69
2023/04/17 14:28:11;;;;;;;6.43;4.00;;;;;;;;;;5014323;28;20045;-69
2023/04/17 14:30:36;;;;;;;4.10;3.53;;;;;;;;;;5006493;28;21298;-69
2023/04/17 14:33:02;;;;;;;5.38;4.57;;;;;;;;;;5013311;28;20052;-69
2023/04/17 14:35:27;;;;;;;5.45;4.90;;;;;;;;;;5017748;28;20150;-69
2023/04/17 14:37:52;;;;;;;4.72;4.22;;;;;;;;;;5015952;28;20139;-69